Center City, Minnesota
Current Conditions -  °F | °C
As of 3:15 AM on Sunday 21 Dec 2014 (Local Time) from KOEO Reporting Station
Overcast Overcast  
Wind Chill: 25°   Ceiling: 1500
Heat Index: 32°   Visibility: 10mi
Dew Point: 29°   Wind: 8mph
Humidity: 90%   Direction: 150°SSE
Pressure: 30.04"   Gusts: NA
Location:  45.39°N, 92.82°W
Report Text: KOEO 210915Z AUTO 15007KT 10SM OVC015 00/M01 A3004 RMK AO2 T00001015
Loading
Personal Weather Stations






























Interactive Weather Map New forecast layout! Learn more

10-Day Weather Forecast

Advertisements
Track Severe Weather on mobile